sensor_id;sensor_type;location;lat;lon;timestamp;P1;durP1;ratioP1;P2;durP2;ratioP2
18893;SDS011;9579;49.488;8.226;2024-03-22T00:37:47;8.20;;;7.40;;
18893;SDS011;9579;49.488;8.226;2024-03-22T00:40:39;9.10;;;8.23;;
18893;SDS011;9579;49.488;8.226;2024-03-22T00:43:27;8.30;;;7.53;;
18893;SDS011;9579;49.488;8.226;2024-03-22T00:46:15;8.50;;;7.80;;
18893;SDS011;9579;49.488;8.226;2024-03-22T00:49:03;8.23;;;7.53;;
18893;SDS011;9579;49.488;8.226;2024-03-22T00:51:49;8.87;;;8.07;;
18893;SDS011;9579;49.488;8.226;2024-03-22T00:54:37;8.10;;;7.40;;
18893;SDS011;9579;49.488;8.226;2024-03-22T00:57:25;8.70;;;7.90;;
18893;SDS011;9579;49.488;8.226;2024-03-22T01:00:13;8.27;;;7.50;;
18893;SDS011;9579;49.488;8.226;2024-03-22T01:03:00;8.10;;;7.30;;
18893;SDS011;9579;49.488;8.226;2024-03-22T01:05:48;8.80;;;7.90;;
18893;SDS011;9579;49.488;8.226;2024-03-22T01:08:34;7.43;;;6.83;;
18893;SDS011;9579;49.488;8.226;2024-03-22T01:11:23;7.10;;;6.40;;
18893;SDS011;9579;49.488;8.226;2024-03-22T01:14:09;8.50;;;7.80;;
18893;SDS011;9579;49.488;8.226;2024-03-22T01:16:55;8.43;;;7.63;;
18893;SDS011;9579;49.488;8.226;2024-03-22T01:19:42;7.53;;;6.93;;
18893;SDS011;9579;49.488;8.226;2024-03-22T01:22:29;7.83;;;7.20;;
18893;SDS011;9579;49.488;8.226;2024-03-22T01:25:15;7.70;;;7.00;;
18893;SDS011;9579;49.488;8.226;2024-03-22T01:28:03;6.30;;;5.80;;
18893;SDS011;9579;49.488;8.226;2024-03-22T01:30:50;6.57;;;5.97;;
18893;SDS011;9579;49.488;8.226;2024-03-22T01:33:37;7.00;;;6.40;;
18893;SDS011;9579;49.488;8.226;2024-03-22T01:36:23;6.90;;;6.20;;
18893;SDS011;9579;49.488;8.226;2024-03-22T01:39:10;6.17;;;5.67;;
18893;SDS011;9579;49.488;8.226;2024-03-22T01:41:56;7.40;;;6.40;;
18893;SDS011;9579;49.488;8.226;2024-03-22T01:44:45;6.60;;;6.00;;
18893;SDS011;9579;49.488;8.226;2024-03-22T01:47:31;7.40;;;6.80;;
18893;SDS011;9579;49.488;8.226;2024-03-22T01:50:18;7.20;;;6.60;;
18893;SDS011;9579;49.488;8.226;2024-03-22T01:53:05;6.43;;;5.83;;
18893;SDS011;9579;49.488;8.226;2024-03-22T01:55:51;6.63;;;6.03;;
18893;SDS011;9579;49.488;8.226;2024-03-22T01:58:39;7.10;;;6.40;;
18893;SDS011;9579;49.488;8.226;2024-03-22T02:01:27;6.40;;;5.90;;
18893;SDS011;9579;49.488;8.226;2024-03-22T02:04:14;6.80;;;6.20;;
18893;SDS011;9579;49.488;8.226;2024-03-22T02:07:00;6.30;;;5.80;;
18893;SDS011;9579;49.488;8.226;2024-03-22T02:09:47;6.90;;;6.30;;
18893;SDS011;9579;49.488;8.226;2024-03-22T02:12:34;7.60;;;6.90;;
18893;SDS011;9579;49.488;8.226;2024-03-22T02:15:21;7.00;;;6.43;;
18893;SDS011;9579;49.488;8.226;2024-03-22T02:18:08;6.50;;;5.90;;
18893;SDS011;9579;49.488;8.226;2024-03-22T02:20:56;7.17;;;6.57;;
18893;SDS011;9579;49.488;8.226;2024-03-22T02:23:43;7.17;;;6.57;;
18893;SDS011;9579;49.488;8.226;2024-03-22T02:26:30;6.90;;;6.30;;
18893;SDS011;9579;49.488;8.226;2024-03-22T02:29:16;6.53;;;6.03;;
18893;SDS011;9579;49.488;8.226;2024-03-22T02:32:03;6.20;;;5.60;;
18893;SDS011;9579;49.488;8.226;2024-03-22T02:34:50;6.80;;;6.23;;
18893;SDS011;9579;49.488;8.226;2024-03-22T02:37:37;6.40;;;5.80;;
18893;SDS011;9579;49.488;8.226;2024-03-22T02:40:24;6.43;;;5.87;;
18893;SDS011;9579;49.488;8.226;2024-03-22T02:43:11;6.27;;;5.67;;
18893;SDS011;9579;49.488;8.226;2024-03-22T02:45:57;6.37;;;5.87;;
18893;SDS011;9579;49.488;8.226;2024-03-22T02:48:44;6.57;;;5.97;;
18893;SDS011;9579;49.488;8.226;2024-03-22T02:51:30;6.70;;;5.50;;
18893;SDS011;9579;49.488;8.226;2024-03-22T02:54:18;6.20;;;5.70;;
18893;SDS011;9579;49.488;8.226;2024-03-22T02:57:05;6.57;;;5.97;;
18893;SDS011;9579;49.488;8.226;2024-03-22T02:59:52;5.70;;;5.20;;
18893;SDS011;9579;49.488;8.226;2024-03-22T03:02:38;6.83;;;5.60;;
18893;SDS011;9579;49.488;8.226;2024-03-22T03:05:25;6.33;;;5.73;;
18893;SDS011;9579;49.488;8.226;2024-03-22T03:08:11;5.37;;;4.97;;
18893;SDS011;9579;49.488;8.226;2024-03-22T03:10:58;6.67;;;6.07;;
18893;SDS011;9579;49.488;8.226;2024-03-22T03:13:46;6.13;;;5.53;;
18893;SDS011;9579;49.488;8.226;2024-03-22T03:16:33;6.20;;;5.60;;
18893;SDS011;9579;49.488;8.226;2024-03-22T03:19:19;5.90;;;5.50;;
18893;SDS011;9579;49.488;8.226;2024-03-22T03:22:06;6.20;;;5.70;;
18893;SDS011;9579;49.488;8.226;2024-03-22T03:24:52;6.33;;;5.73;;
18893;SDS011;9579;49.488;8.226;2024-03-22T03:27:39;5.97;;;5.47;;
18893;SDS011;9579;49.488;8.226;2024-03-22T03:30:26;5.77;;;5.27;;
18893;SDS011;9579;49.488;8.226;2024-03-22T03:33:13;5.17;;;4.77;;
18893;SDS011;9579;49.488;8.226;2024-03-22T03:35:59;5.60;;;5.13;;
18893;SDS011;9579;49.488;8.226;2024-03-22T03:38:46;5.73;;;5.27;;
18893;SDS011;9579;49.488;8.226;2024-03-22T03:41:32;5.70;;;5.20;;
18893;SDS011;9579;49.488;8.226;2024-03-22T03:44:19;6.03;;;5.43;;
18893;SDS011;9579;49.488;8.226;2024-03-22T03:47:07;5.90;;;5.40;;
18893;SDS011;9579;49.488;8.226;2024-03-22T03:49:54;5.23;;;4.80;;
18893;SDS011;9579;49.488;8.226;2024-03-22T03:52:40;5.77;;;5.27;;
18893;SDS011;9579;49.488;8.226;2024-03-22T03:55:27;6.57;;;5.90;;
18893;SDS011;9579;49.488;8.226;2024-03-22T03:58:13;5.70;;;5.20;;
18893;SDS011;9579;49.488;8.226;2024-03-22T04:01:04;5.37;;;4.97;;
18893;SDS011;9579;49.488;8.226;2024-03-22T04:03:52;5.10;;;4.70;;
18893;SDS011;9579;49.488;8.226;2024-03-22T04:06:39;6.17;;;5.50;;
18893;SDS011;9579;49.488;8.226;2024-03-22T04:09:25;6.03;;;5.53;;
18893;SDS011;9579;49.488;8.226;2024-03-22T04:12:12;5.17;;;4.77;;
18893;SDS011;9579;49.488;8.226;2024-03-22T04:14:58;6.43;;;5.83;;
18893;SDS011;9579;49.488;8.226;2024-03-22T04:17:46;5.57;;;5.07;;
18893;SDS011;9579;49.488;8.226;2024-03-22T04:20:33;5.53;;;5.13;;
18893;SDS011;9579;49.488;8.226;2024-03-22T04:23:20;5.60;;;5.10;;
18893;SDS011;9579;49.488;8.226;2024-03-22T04:26:07;5.53;;;5.03;;
18893;SDS011;9579;49.488;8.226;2024-03-22T04:28:54;5.20;;;4.80;;
18893;SDS011;9579;49.488;8.226;2024-03-22T04:31:40;5.97;;;5.47;;
18893;SDS011;9579;49.488;8.226;2024-03-22T04:34:27;4.73;;;4.33;;
18893;SDS011;9579;49.488;8.226;2024-03-22T04:37:14;4.93;;;4.50;;
18893;SDS011;9579;49.488;8.226;2024-03-22T04:40:01;5.57;;;5.03;;
18893;SDS011;9579;49.488;8.226;2024-03-22T04:42:48;5.33;;;4.80;;
18893;SDS011;9579;49.488;8.226;2024-03-22T04:45:35;5.43;;;4.93;;
18893;SDS011;9579;49.488;8.226;2024-03-22T04:48:22;7.93;;;4.90;;
18893;SDS011;9579;49.488;8.226;2024-03-22T04:51:09;6.93;;;4.83;;
18893;SDS011;9579;49.488;8.226;2024-03-22T04:53:57;9.47;;;5.47;;
18893;SDS011;9579;49.488;8.226;2024-03-22T04:56:43;8.53;;;5.50;;
18893;SDS011;9579;49.488;8.226;2024-03-22T04:59:30;5.97;;;5.33;;
18893;SDS011;9579;49.488;8.226;2024-03-22T05:02:16;8.97;;;5.43;;
18893;SDS011;9579;49.488;8.226;2024-03-22T05:05:04;6.77;;;5.03;;
18893;SDS011;9579;49.488;8.226;2024-03-22T05:07:50;8.40;;;5.40;;
18893;SDS011;9579;49.488;8.226;2024-03-22T05:10:38;6.67;;;5.30;;
18893;SDS011;9579;49.488;8.226;2024-03-22T05:13:24;6.47;;;5.10;;
18893;SDS011;9579;49.488;8.226;2024-03-22T05:16:11;6.00;;;5.37;;
18893;SDS011;9579;49.488;8.226;2024-03-22T05:18:58;6.37;;;5.77;;
18893;SDS011;9579;49.488;8.226;2024-03-22T05:21:45;5.60;;;5.10;;
18893;SDS011;9579;49.488;8.226;2024-03-22T05:24:31;5.43;;;4.93;;
18893;SDS011;9579;49.488;8.226;2024-03-22T05:27:20;5.30;;;4.80;;
18893;SDS011;9579;49.488;8.226;2024-03-22T05:30:06;6.33;;;5.73;;
18893;SDS011;9579;49.488;8.226;2024-03-22T05:32:54;5.80;;;5.27;;
18893;SDS011;9579;49.488;8.226;2024-03-22T05:35:40;7.57;;;5.03;;
18893;SDS011;9579;49.488;8.226;2024-03-22T05:38:27;4.97;;;4.57;;
18893;SDS011;9579;49.488;8.226;2024-03-22T05:41:13;7.03;;;5.57;;
18893;SDS011;9579;49.488;8.226;2024-03-22T05:44:01;5.50;;;5.00;;
18893;SDS011;9579;49.488;8.226;2024-03-22T05:46:48;6.13;;;5.13;;
18893;SDS011;9579;49.488;8.226;2024-03-22T05:49:35;14.50;;;5.90;;
18893;SDS011;9579;49.488;8.226;2024-03-22T05:52:21;14.07;;;6.13;;
18893;SDS011;9579;49.488;8.226;2024-03-22T05:55:08;10.07;;;5.37;;
18893;SDS011;9579;49.488;8.226;2024-03-22T05:57:55;8.40;;;5.30;;
18893;SDS011;9579;49.488;8.226;2024-03-22T06:00:43;21.10;;;7.07;;
18893;SDS011;9579;49.488;8.226;2024-03-22T06:03:30;16.50;;;6.77;;
18893;SDS011;9579;49.488;8.226;2024-03-22T06:06:16;18.27;;;6.73;;
18893;SDS011;9579;49.488;8.226;2024-03-22T06:09:03;27.30;;;8.47;;
18893;SDS011;9579;49.488;8.226;2024-03-22T06:11:49;14.67;;;8.10;;
18893;SDS011;9579;49.488;8.226;2024-03-22T06:14:36;16.63;;;7.60;;
18893;SDS011;9579;49.488;8.226;2024-03-22T06:17:25;16.83;;;7.30;;
18893;SDS011;9579;49.488;8.226;2024-03-22T06:20:11;10.97;;;6.50;;
18893;SDS011;9579;49.488;8.226;2024-03-22T06:22:58;10.83;;;6.10;;
18893;SDS011;9579;49.488;8.226;2024-03-22T06:25:50;6.93;;;6.17;;
18893;SDS011;9579;49.488;8.226;2024-03-22T06:28:41;7.00;;;5.87;;
18893;SDS011;9579;49.488;8.226;2024-03-22T06:31:28;6.40;;;5.20;;
18893;SDS011;9579;49.488;8.226;2024-03-22T06:36:54;6.50;;;5.80;;
18893;SDS011;9579;49.488;8.226;2024-03-22T06:39:47;6.63;;;6.03;;
18893;SDS011;9579;49.488;8.226;2024-03-22T06:42:57;8.03;;;6.10;;
18893;SDS011;9579;49.488;8.226;2024-03-22T06:45:48;38.03;;;9.53;;
18893;SDS011;9579;49.488;8.226;2024-03-22T06:48:39;17.43;;;7.57;;
18893;SDS011;9579;49.488;8.226;2024-03-22T06:51:45;10.90;;;6.53;;
18893;SDS011;9579;49.488;8.226;2024-03-22T06:57:18;8.10;;;6.23;;
18893;SDS011;9579;49.488;8.226;2024-03-22T07:00:05;10.20;;;6.47;;
18893;SDS011;9579;49.488;8.226;2024-03-22T07:02:55;9.77;;;6.10;;
18893;SDS011;9579;49.488;8.226;2024-03-22T07:05:42;7.03;;;5.93;;
18893;SDS011;9579;49.488;8.226;2024-03-22T07:08:28;5.88;;;5.38;;
18893;SDS011;9579;49.488;8.226;2024-03-22T07:11:16;5.97;;;5.47;;
18893;SDS011;9579;49.488;8.226;2024-03-22T07:14:05;7.18;;;5.53;;
18893;SDS011;9579;49.488;8.226;2024-03-22T07:16:51;5.77;;;5.37;;
18893;SDS011;9579;49.488;8.226;2024-03-22T07:19:39;6.40;;;5.50;;
18893;SDS011;9579;49.488;8.226;2024-03-22T07:22:34;8.80;;;5.30;;
18893;SDS011;9579;49.488;8.226;2024-03-22T07:25:31;5.73;;;5.17;;
18893;SDS011;9579;49.488;8.226;2024-03-22T07:28:20;7.17;;;5.33;;
18893;SDS011;9579;49.488;8.226;2024-03-22T07:31:14;5.50;;;5.00;;
18893;SDS011;9579;49.488;8.226;2024-03-22T07:37:49;5.22;;;4.70;;
18893;SDS011;9579;49.488;8.226;2024-03-22T07:41:14;5.70;;;5.30;;
18893;SDS011;9579;49.488;8.226;2024-03-22T07:44:18;5.63;;;4.78;;
18893;SDS011;9579;49.488;8.226;2024-03-22T07:50:27;11.25;;;6.45;;
18893;SDS011;9579;49.488;8.226;2024-03-22T07:53:14;8.32;;;7.53;;
18893;SDS011;9579;49.488;8.226;2024-03-22T07:56:15;8.23;;;7.53;;
18893;SDS011;9579;49.488;8.226;2024-03-22T07:59:03;10.70;;;8.30;;
18893;SDS011;9579;49.488;8.226;2024-03-22T08:01:52;8.60;;;7.90;;
18893;SDS011;9579;49.488;8.226;2024-03-22T08:04:44;8.73;;;7.75;;
18893;SDS011;9579;49.488;8.226;2024-03-22T08:07:31;8.77;;;7.97;;
18893;SDS011;9579;49.488;8.226;2024-03-22T08:10:17;8.50;;;7.70;;
18893;SDS011;9579;49.488;8.226;2024-03-22T08:13:14;8.60;;;7.70;;
18893;SDS011;9579;49.488;8.226;2024-03-22T08:16:01;9.20;;;8.00;;
18893;SDS011;9579;49.488;8.226;2024-03-22T08:18:48;8.40;;;7.45;;
18893;SDS011;9579;49.488;8.226;2024-03-22T08:21:36;7.72;;;7.13;;
18893;SDS011;9579;49.488;8.226;2024-03-22T08:24:26;14.57;;;11.68;;
18893;SDS011;9579;49.488;8.226;2024-03-22T08:27:13;70.65;;;32.75;;
18893;SDS011;9579;49.488;8.226;2024-03-22T08:30:00;22.70;;;15.68;;
18893;SDS011;9579;49.488;8.226;2024-03-22T08:32:51;11.32;;;8.98;;
18893;SDS011;9579;49.488;8.226;2024-03-22T08:35:40;9.13;;;8.23;;
18893;SDS011;9579;49.488;8.226;2024-03-22T08:38:28;8.18;;;7.50;;
18893;SDS011;9579;49.488;8.226;2024-03-22T08:41:15;8.20;;;7.40;;
18893;SDS011;9579;49.488;8.226;2024-03-22T08:44:02;8.32;;;7.53;;
18893;SDS011;9579;49.488;8.226;2024-03-22T08:46:49;8.48;;;7.78;;
18893;SDS011;9579;49.488;8.226;2024-03-22T08:49:36;8.30;;;7.60;;
18893;SDS011;9579;49.488;8.226;2024-03-22T08:52:31;8.80;;;8.10;;
18893;SDS011;9579;49.488;8.226;2024-03-22T08:55:22;8.73;;;7.93;;
18893;SDS011;9579;49.488;8.226;2024-03-22T08:58:10;8.52;;;7.82;;
18893;SDS011;9579;49.488;8.226;2024-03-22T09:00:56;8.35;;;7.65;;
18893;SDS011;9579;49.488;8.226;2024-03-22T09:03:51;8.63;;;7.88;;
18893;SDS011;9579;49.488;8.226;2024-03-22T09:06:38;8.43;;;7.72;;
18893;SDS011;9579;49.488;8.226;2024-03-22T09:09:28;8.10;;;7.40;;
18893;SDS011;9579;49.488;8.226;2024-03-22T09:12:16;7.97;;;7.28;;
18893;SDS011;9579;49.488;8.226;2024-03-22T09:15:04;8.13;;;7.43;;
18893;SDS011;9579;49.488;8.226;2024-03-22T09:17:52;7.88;;;7.18;;
18893;SDS011;9579;49.488;8.226;2024-03-22T09:20:42;7.72;;;7.07;;
18893;SDS011;9579;49.488;8.226;2024-03-22T09:23:30;7.60;;;6.90;;
18893;SDS011;9579;49.488;8.226;2024-03-22T09:26:16;8.75;;;7.85;;
18893;SDS011;9579;49.488;8.226;2024-03-22T09:29:05;7.93;;;7.30;;
18893;SDS011;9579;49.488;8.226;2024-03-22T09:31:51;7.72;;;7.07;;
18893;SDS011;9579;49.488;8.226;2024-03-22T09:34:38;7.95;;;7.22;;
18893;SDS011;9579;49.488;8.226;2024-03-22T09:37:25;7.55;;;6.85;;
18893;SDS011;9579;49.488;8.226;2024-03-22T09:40:11;7.75;;;7.05;;
18893;SDS011;9579;49.488;8.226;2024-03-22T09:43:02;7.75;;;7.05;;
18893;SDS011;9579;49.488;8.226;2024-03-22T09:45:50;7.20;;;6.50;;
18893;SDS011;9579;49.488;8.226;2024-03-22T09:48:37;7.38;;;6.68;;
18893;SDS011;9579;49.488;8.226;2024-03-22T09:51:24;7.50;;;6.80;;
18893;SDS011;9579;49.488;8.226;2024-03-22T09:54:11;7.13;;;6.47;;
18893;SDS011;9579;49.488;8.226;2024-03-22T09:56:57;7.20;;;6.55;;
18893;SDS011;9579;49.488;8.226;2024-03-22T09:59:45;6.13;;;5.63;;
18893;SDS011;9579;49.488;8.226;2024-03-22T10:02:32;7.38;;;6.78;;
18893;SDS011;9579;49.488;8.226;2024-03-22T10:05:20;6.18;;;5.63;;
18893;SDS011;9579;49.488;8.226;2024-03-22T10:08:07;6.65;;;5.90;;
18893;SDS011;9579;49.488;8.226;2024-03-22T10:10:53;6.80;;;5.97;;
18893;SDS011;9579;49.488;8.226;2024-03-22T10:13:40;6.57;;;6.07;;
18893;SDS011;9579;49.488;8.226;2024-03-22T10:16:26;5.85;;;5.45;;
18893;SDS011;9579;49.488;8.226;2024-03-22T10:19:15;6.28;;;5.68;;
18893;SDS011;9579;49.488;8.226;2024-03-22T10:22:01;5.38;;;4.97;;
18893;SDS011;9579;49.488;8.226;2024-03-22T10:24:49;4.80;;;4.40;;
18893;SDS011;9579;49.488;8.226;2024-03-22T10:27:37;5.20;;;4.70;;
18893;SDS011;9579;49.488;8.226;2024-03-22T10:30:25;5.00;;;4.50;;
18893;SDS011;9579;49.488;8.226;2024-03-22T10:33:12;4.80;;;4.40;;
18893;SDS011;9579;49.488;8.226;2024-03-22T10:36:01;4.55;;;4.15;;
18893;SDS011;9579;49.488;8.226;2024-03-22T10:38:47;5.63;;;4.40;;
18893;SDS011;9579;49.488;8.226;2024-03-22T10:41:37;4.68;;;4.22;;
18893;SDS011;9579;49.488;8.226;2024-03-22T10:44:23;4.63;;;4.22;;
18893;SDS011;9579;49.488;8.226;2024-03-22T10:47:10;5.18;;;4.68;;
18893;SDS011;9579;49.488;8.226;2024-03-22T10:50:03;4.88;;;4.47;;
18893;SDS011;9579;49.488;8.226;2024-03-22T10:52:54;4.85;;;4.38;;
18893;SDS011;9579;49.488;8.226;2024-03-22T10:55:45;3.95;;;3.65;;
18893;SDS011;9579;49.488;8.226;2024-03-22T10:58:35;4.65;;;4.25;;
18893;SDS011;9579;49.488;8.226;2024-03-22T11:01:25;5.22;;;4.40;;
18893;SDS011;9579;49.488;8.226;2024-03-22T11:04:19;4.70;;;4.30;;
18893;SDS011;9579;49.488;8.226;2024-03-22T11:07:08;5.18;;;4.78;;
18893;SDS011;9579;49.488;8.226;2024-03-22T11:09:57;5.60;;;5.10;;
18893;SDS011;9579;49.488;8.226;2024-03-22T11:12:48;5.13;;;4.70;;
18893;SDS011;9579;49.488;8.226;2024-03-22T11:15:37;5.18;;;4.57;;
18893;SDS011;9579;49.488;8.226;2024-03-22T11:18:24;4.90;;;4.50;;
18893;SDS011;9579;49.488;8.226;2024-03-22T11:21:11;4.35;;;4.05;;
18893;SDS011;9579;49.488;8.226;2024-03-22T11:24:00;4.22;;;3.92;;
18893;SDS011;9579;49.488;8.226;2024-03-22T11:26:48;5.00;;;4.60;;
18893;SDS011;9579;49.488;8.226;2024-03-22T11:29:34;4.70;;;4.30;;
18893;SDS011;9579;49.488;8.226;2024-03-22T11:32:24;5.47;;;4.97;;
18893;SDS011;9579;49.488;8.226;2024-03-22T11:35:12;4.95;;;4.55;;
18893;SDS011;9579;49.488;8.226;2024-03-22T11:37:59;4.72;;;4.38;;
18893;SDS011;9579;49.488;8.226;2024-03-22T11:40:46;4.70;;;4.30;;
18893;SDS011;9579;49.488;8.226;2024-03-22T11:43:34;5.20;;;4.70;;
18893;SDS011;9579;49.488;8.226;2024-03-22T11:46:21;4.70;;;4.20;;
18893;SDS011;9579;49.488;8.226;2024-03-22T11:49:07;4.38;;;4.07;;
18893;SDS011;9579;49.488;8.226;2024-03-22T11:51:54;5.35;;;4.35;;
18893;SDS011;9579;49.488;8.226;2024-03-22T11:54:42;4.93;;;4.53;;
18893;SDS011;9579;49.488;8.226;2024-03-22T11:57:29;4.25;;;3.90;;
18893;SDS011;9579;49.488;8.226;2024-03-22T12:00:16;5.18;;;4.57;;
18893;SDS011;9579;49.488;8.226;2024-03-22T12:03:04;4.57;;;4.18;;
18893;SDS011;9579;49.488;8.226;2024-03-22T12:05:52;4.15;;;3.75;;
18893;SDS011;9579;49.488;8.226;2024-03-22T12:08:41;4.32;;;3.90;;
18893;SDS011;9579;49.488;8.226;2024-03-22T12:11:27;4.35;;;4.05;;
18893;SDS011;9579;49.488;8.226;2024-03-22T12:14:14;3.92;;;3.60;;
18893;SDS011;9579;49.488;8.226;2024-03-22T12:17:02;4.20;;;3.80;;
18893;SDS011;9579;49.488;8.226;2024-03-22T12:19:49;5.07;;;4.15;;
18893;SDS011;9579;49.488;8.226;2024-03-22T12:22:35;4.90;;;4.25;;
18893;SDS011;9579;49.488;8.226;2024-03-22T12:25:22;4.88;;;4.47;;
18893;SDS011;9579;49.488;8.226;2024-03-22T12:28:09;4.45;;;4.05;;
18893;SDS011;9579;49.488;8.226;2024-03-22T12:30:56;4.43;;;3.72;;
18893;SDS011;9579;49.488;8.226;2024-03-22T12:33:44;5.32;;;3.67;;
18893;SDS011;9579;49.488;8.226;2024-03-22T12:36:31;4.78;;;4.15;;
18893;SDS011;9579;49.488;8.226;2024-03-22T12:39:17;4.45;;;4.05;;
18893;SDS011;9579;49.488;8.226;2024-03-22T12:42:04;5.10;;;4.47;;
18893;SDS011;9579;49.488;8.226;2024-03-22T12:44:52;4.38;;;3.97;;
18893;SDS011;9579;49.488;8.226;2024-03-22T12:47:38;4.00;;;3.60;;
18893;SDS011;9579;49.488;8.226;2024-03-22T12:50:26;4.50;;;4.10;;
18893;SDS011;9579;49.488;8.226;2024-03-22T12:53:13;5.15;;;4.65;;
18893;SDS011;9579;49.488;8.226;2024-03-22T12:56:00;5.75;;;4.10;;
18893;SDS011;9579;49.488;8.226;2024-03-22T12:58:46;5.28;;;4.63;;
18893;SDS011;9579;49.488;8.226;2024-03-22T13:01:34;4.22;;;3.83;;
18893;SDS011;9579;49.488;8.226;2024-03-22T13:04:22;5.00;;;4.50;;
18893;SDS011;9579;49.488;8.226;2024-03-22T13:07:11;5.28;;;4.63;;
18893;SDS011;9579;49.488;8.226;2024-03-22T13:09:57;4.70;;;4.25;;
18893;SDS011;9579;49.488;8.226;2024-03-22T13:12:45;4.40;;;4.00;;
18893;SDS011;9579;49.488;8.226;2024-03-22T13:15:31;4.47;;;3.90;;
18893;SDS011;9579;49.488;8.226;2024-03-22T13:18:20;4.03;;;3.72;;
18893;SDS011;9579;49.488;8.226;2024-03-22T13:21:06;4.40;;;4.00;;
18893;SDS011;9579;49.488;8.226;2024-03-22T13:23:55;4.38;;;3.97;;
18893;SDS011;9579;49.488;8.226;2024-03-22T13:26:41;5.15;;;4.30;;
18893;SDS011;9579;49.488;8.226;2024-03-22T13:29:29;4.07;;;3.63;;
18893;SDS011;9579;49.488;8.226;2024-03-22T13:32:15;4.20;;;3.80;;
18893;SDS011;9579;49.488;8.226;2024-03-22T13:35:02;5.30;;;4.80;;
18893;SDS011;9579;49.488;8.226;2024-03-22T13:37:49;4.43;;;4.03;;
18893;SDS011;9579;49.488;8.226;2024-03-22T13:40:37;15.55;;;7.45;;
18893;SDS011;9579;49.488;8.226;2024-03-22T13:43:23;8.25;;;7.50;;
18893;SDS011;9579;49.488;8.226;2024-03-22T13:46:12;9.30;;;8.32;;
18893;SDS011;9579;49.488;8.226;2024-03-22T13:49:00;12.18;;;10.75;;
18893;SDS011;9579;49.488;8.226;2024-03-22T13:51:48;11.32;;;10.32;;
18893;SDS011;9579;49.488;8.226;2024-03-22T13:54:34;12.18;;;10.98;;
18893;SDS011;9579;49.488;8.226;2024-03-22T13:57:22;12.45;;;11.23;;
18893;SDS011;9579;49.488;8.226;2024-03-22T14:00:11;12.88;;;11.57;;
18893;SDS011;9579;49.488;8.226;2024-03-22T14:03:00;13.10;;;11.57;;
18893;SDS011;9579;49.488;8.226;2024-03-22T14:05:46;13.30;;;10.77;;
18893;SDS011;9579;49.488;8.226;2024-03-22T14:08:33;11.88;;;10.65;;
18893;SDS011;9579;49.488;8.226;2024-03-22T14:11:19;10.00;;;9.10;;
18893;SDS011;9579;49.488;8.226;2024-03-22T14:14:08;12.48;;;11.27;;
18893;SDS011;9579;49.488;8.226;2024-03-22T14:16:57;12.05;;;10.85;;
18893;SDS011;9579;49.488;8.226;2024-03-22T14:19:44;11.02;;;10.10;;
18893;SDS011;9579;49.488;8.226;2024-03-22T14:22:31;10.10;;;9.10;;
18893;SDS011;9579;49.488;8.226;2024-03-22T14:25:18;12.32;;;10.70;;
18893;SDS011;9579;49.488;8.226;2024-03-22T14:28:04;10.70;;;9.60;;
18893;SDS011;9579;49.488;8.226;2024-03-22T14:30:53;11.75;;;10.55;;
18893;SDS011;9579;49.488;8.226;2024-03-22T14:33:39;12.18;;;11.02;;
18893;SDS011;9579;49.488;8.226;2024-03-22T14:36:26;11.38;;;9.82;;
18893;SDS011;9579;49.488;8.226;2024-03-22T14:39:12;11.93;;;10.73;;
18893;SDS011;9579;49.488;8.226;2024-03-22T14:41:59;11.70;;;10.50;;
18893;SDS011;9579;49.488;8.226;2024-03-22T14:44:45;13.63;;;11.60;;
18893;SDS011;9579;49.488;8.226;2024-03-22T14:47:34;11.20;;;10.10;;
18893;SDS011;9579;49.488;8.226;2024-03-22T14:50:22;11.57;;;10.38;;
18893;SDS011;9579;49.488;8.226;2024-03-22T14:53:09;9.70;;;8.80;;
18893;SDS011;9579;49.488;8.226;2024-03-22T14:55:57;11.50;;;10.32;;
18893;SDS011;9579;49.488;8.226;2024-03-22T14:58:44;10.55;;;9.45;;
18893;SDS011;9579;49.488;8.226;2024-03-22T15:01:31;11.30;;;10.20;;
18893;SDS011;9579;49.488;8.226;2024-03-22T15:04:19;9.55;;;8.75;;
18893;SDS011;9579;49.488;8.226;2024-03-22T15:07:06;11.10;;;9.98;;
18893;SDS011;9579;49.488;8.226;2024-03-22T15:09:53;11.52;;;10.32;;
18893;SDS011;9579;49.488;8.226;2024-03-22T15:12:39;9.93;;;9.02;;
18893;SDS011;9579;49.488;8.226;2024-03-22T15:15:26;10.60;;;9.52;;
18893;SDS011;9579;49.488;8.226;2024-03-22T15:18:13;11.48;;;10.27;;
18893;SDS011;9579;49.488;8.226;2024-03-22T15:21:01;12.15;;;11.00;;
18893;SDS011;9579;49.488;8.226;2024-03-22T15:23:49;11.90;;;10.70;;
18893;SDS011;9579;49.488;8.226;2024-03-22T15:26:36;11.15;;;9.88;;
18893;SDS011;9579;49.488;8.226;2024-03-22T15:29:22;11.43;;;10.40;;
18893;SDS011;9579;49.488;8.226;2024-03-22T15:32:09;9.88;;;8.88;;
18893;SDS011;9579;49.488;8.226;2024-03-22T15:34:56;9.85;;;8.85;;
18893;SDS011;9579;49.488;8.226;2024-03-22T15:37:44;9.38;;;8.48;;
18893;SDS011;9579;49.488;8.226;2024-03-22T15:40:32;9.60;;;8.55;;
18893;SDS011;9579;49.488;8.226;2024-03-22T15:43:18;9.40;;;8.50;;
18893;SDS011;9579;49.488;8.226;2024-03-22T15:46:06;9.75;;;8.75;;
18893;SDS011;9579;49.488;8.226;2024-03-22T15:48:52;10.27;;;9.25;;
18893;SDS011;9579;49.488;8.226;2024-03-22T15:51:39;10.25;;;9.20;;
18893;SDS011;9579;49.488;8.226;2024-03-22T15:54:27;8.52;;;7.72;;
18893;SDS011;9579;49.488;8.226;2024-03-22T15:57:15;9.45;;;8.50;;
18893;SDS011;9579;49.488;8.226;2024-03-22T16:00:01;10.85;;;9.40;;
18893;SDS011;9579;49.488;8.226;2024-03-22T16:02:49;11.57;;;8.77;;
18893;SDS011;9579;49.488;8.226;2024-03-22T16:05:35;13.52;;;10.82;;
18893;SDS011;9579;49.488;8.226;2024-03-22T16:08:22;10.10;;;9.10;;
18893;SDS011;9579;49.488;8.226;2024-03-22T16:11:09;12.15;;;10.38;;
18893;SDS011;9579;49.488;8.226;2024-03-22T16:13:56;10.32;;;8.50;;
18893;SDS011;9579;49.488;8.226;2024-03-22T16:16:43;9.55;;;8.40;;
18893;SDS011;9579;49.488;8.226;2024-03-22T16:19:31;9.52;;;8.60;;
18893;SDS011;9579;49.488;8.226;2024-03-22T16:22:17;11.57;;;10.30;;
18893;SDS011;9579;49.488;8.226;2024-03-22T16:25:04;11.38;;;10.07;;
18893;SDS011;9579;49.488;8.226;2024-03-22T16:27:53;8.73;;;7.88;;
18893;SDS011;9579;49.488;8.226;2024-03-22T16:30:42;8.30;;;7.50;;
18893;SDS011;9579;49.488;8.226;2024-03-22T16:33:28;7.80;;;7.10;;
18893;SDS011;9579;49.488;8.226;2024-03-22T16:36:15;9.43;;;8.05;;
18893;SDS011;9579;49.488;8.226;2024-03-22T16:39:02;9.00;;;7.95;;
18893;SDS011;9579;49.488;8.226;2024-03-22T16:41:49;7.20;;;6.50;;
18893;SDS011;9579;49.488;8.226;2024-03-22T16:44:37;7.65;;;6.20;;
18893;SDS011;9579;49.488;8.226;2024-03-22T16:47:25;8.38;;;6.32;;
18893;SDS011;9579;49.488;8.226;2024-03-22T16:50:11;8.50;;;7.63;;
18893;SDS011;9579;49.488;8.226;2024-03-22T16:52:59;7.47;;;6.88;;
18893;SDS011;9579;49.488;8.226;2024-03-22T16:55:45;7.07;;;6.38;;
18893;SDS011;9579;49.488;8.226;2024-03-22T16:58:32;8.02;;;7.22;;
18893;SDS011;9579;49.488;8.226;2024-03-22T17:01:19;7.85;;;7.13;;
18893;SDS011;9579;49.488;8.226;2024-03-22T17:04:06;7.22;;;6.63;;
18893;SDS011;9579;49.488;8.226;2024-03-22T17:06:52;8.45;;;7.20;;
18893;SDS011;9579;49.488;8.226;2024-03-22T17:09:39;7.00;;;6.35;;
18893;SDS011;9579;49.488;8.226;2024-03-22T17:12:25;6.65;;;6.03;;
18893;SDS011;9579;49.488;8.226;2024-03-22T17:15:13;6.65;;;6.00;;
18893;SDS011;9579;49.488;8.226;2024-03-22T17:18:00;7.35;;;6.65;;
18893;SDS011;9579;49.488;8.226;2024-03-22T17:20:47;7.03;;;5.25;;
18893;SDS011;9579;49.488;8.226;2024-03-22T17:23:33;6.40;;;5.80;;
18893;SDS011;9579;49.488;8.226;2024-03-22T17:26:20;5.45;;;4.95;;
18893;SDS011;9579;49.488;8.226;2024-03-22T17:29:06;5.30;;;4.80;;
18893;SDS011;9579;49.488;8.226;2024-03-22T17:31:55;5.15;;;4.75;;
18893;SDS011;9579;49.488;8.226;2024-03-22T17:34:42;5.82;;;4.93;;
18893;SDS011;9579;49.488;8.226;2024-03-22T17:37:29;4.50;;;4.10;;
18893;SDS011;9579;49.488;8.226;2024-03-22T17:40:16;4.82;;;4.35;;
18893;SDS011;9579;49.488;8.226;2024-03-22T17:43:03;5.88;;;5.28;;
18893;SDS011;9579;49.488;8.226;2024-03-22T17:45:55;5.60;;;5.10;;
18893;SDS011;9579;49.488;8.226;2024-03-22T17:48:42;5.95;;;5.40;;
18893;SDS011;9579;49.488;8.226;2024-03-22T17:51:30;5.70;;;5.20;;